Terminal Aerodrome Forecast
Issued by NWS

Home | Current Version | Previous Version | Text Only | Print | Product List | Glossary On
Versions: 1 2 3 4 5 6 7 8 9 10 11 12 13 14 15 16 17 18 19 20 21
305
FTUS46 KSGX 062338
TAFSNA
TAF
KSNA 062338Z 0700/0724 22011KT P6SM VCSH SCT025 BKN060
     FM070200 VRB06KT P6SM VCSH SCT025 BKN035
     FM070700 VRB06KT P6SM VCSH BKN025 OVC040
     FM071600 VRB06KT P6SM VCSH SCT025 BKN040
     FM071900 22009KT P6SM FEW025 SCT040=

USA.gov is the U.S. government's official web portal to all federal, state and local government web resources and services.